createdAt,value
2019-06-26T00:00:25.032Z,5.20
2019-06-26T00:01:24.985Z,5.60
2019-06-26T00:02:24.978Z,5.30
2019-06-26T00:03:24.964Z,5.80
2019-06-26T00:04:24.989Z,5.40
2019-06-26T00:05:24.942Z,5.50
2019-06-26T00:06:24.931Z,5.90
2019-06-26T00:07:24.922Z,6.00
2019-06-26T00:08:24.910Z,5.20
2019-06-26T00:09:24.935Z,5.40
2019-06-26T00:10:24.886Z,5.10
2019-06-26T00:11:24.884Z,5.40
2019-06-26T00:12:24.867Z,5.80
2019-06-26T00:13:26.578Z,5.70
2019-06-26T00:14:24.894Z,5.50
2019-06-26T00:15:24.836Z,5.90
2019-06-26T00:16:24.820Z,5.00
2019-06-26T00:17:24.811Z,5.40
2019-06-26T00:18:24.804Z,5.40
2019-06-26T00:19:24.821Z,5.00
2019-06-26T00:20:24.780Z,5.50
2019-06-26T00:21:24.786Z,5.40
2019-06-26T00:22:24.754Z,5.40
2019-06-26T00:23:24.750Z,5.60
2019-06-26T00:24:24.763Z,6.20
2019-06-26T00:25:24.722Z,5.60
2019-06-26T00:26:24.721Z,5.70
2019-06-26T00:27:24.699Z,5.70
2019-06-26T00:28:24.688Z,5.70
2019-06-26T00:29:24.708Z,5.50
2019-06-26T00:30:24.665Z,5.90
2019-06-26T00:31:24.654Z,6.00
2019-06-26T00:32:24.646Z,5.60
2019-06-26T00:33:24.631Z,5.10
2019-06-26T00:34:24.651Z,5.30
2019-06-26T00:35:24.610Z,5.20
2019-06-26T00:36:24.599Z,5.50
2019-06-26T00:37:24.587Z,5.40
2019-06-26T00:38:24.581Z,5.70
2019-06-26T00:39:24.601Z,5.80
2019-06-26T00:40:24.559Z,5.90
2019-06-26T00:41:24.542Z,5.40
2019-06-26T00:42:24.536Z,5.10
2019-06-26T00:43:24.531Z,5.80
2019-06-26T00:44:24.541Z,6.20
2019-06-26T00:45:24.499Z,6.20
2019-06-26T00:46:24.494Z,5.70
2019-06-26T00:47:24.474Z,5.70
2019-06-26T00:48:24.463Z,6.20
2019-06-26T00:49:24.455Z,6.20
2019-06-26T00:50:24.473Z,6.30
2019-06-26T00:51:24.429Z,6.60
2019-06-26T00:52:24.421Z,6.70
2019-06-26T00:53:24.406Z,6.70
2019-06-26T00:54:24.403Z,6.40
2019-06-26T00:55:24.417Z,5.80
2019-06-26T00:56:24.426Z,6.40
2019-06-26T00:57:24.365Z,6.30
2019-06-26T00:58:24.350Z,5.80
2019-06-26T00:59:24.341Z,7.10
2019-06-26T01:00:24.361Z,6.30
2019-06-26T01:01:24.322Z,6.40
2019-06-26T01:02:24.307Z,6.50
2019-06-26T01:03:24.298Z,6.30
2019-06-26T01:04:24.283Z,6.10
2019-06-26T01:05:24.306Z,6.50
2019-06-26T01:06:24.261Z,6.30
2019-06-26T01:07:24.251Z,6.40
2019-06-26T01:08:24.240Z,6.20
2019-06-26T01:09:24.240Z,6.20
2019-06-26T01:10:24.254Z,5.90
2019-06-26T01:11:24.205Z,6.50
2019-06-26T01:12:24.201Z,6.20
2019-06-26T01:13:24.186Z,6.50
2019-06-26T01:14:24.171Z,5.90
2019-06-26T01:15:24.194Z,6.20
2019-06-26T01:16:24.154Z,5.80
2019-06-26T01:17:24.138Z,6.10
2019-06-26T01:18:24.127Z,6.50
2019-06-26T01:19:24.116Z,6.30
2019-06-26T01:20:24.139Z,6.10
2019-06-26T01:21:24.099Z,6.10
2019-06-26T01:22:24.082Z,6.20
2019-06-26T01:23:24.072Z,6.10
2019-06-26T01:24:24.074Z,5.80
2019-06-26T01:25:24.099Z,6.30
2019-06-26T01:26:24.036Z,6.20
2019-06-26T01:27:24.025Z,6.00
2019-06-26T01:28:24.027Z,6.00
2019-06-26T01:29:24.002Z,5.70
2019-06-26T01:30:23.997Z,6.80
2019-06-26T01:31:24.021Z,6.00
2019-06-26T01:32:23.974Z,5.90
2019-06-26T01:33:23.964Z,5.50
2019-06-26T01:34:23.948Z,6.10
2019-06-26T01:35:23.969Z,5.90
2019-06-26T01:36:23.925Z,5.30
2019-06-26T01:37:23.912Z,6.50
2019-06-26T01:38:23.903Z,5.60
2019-06-26T01:39:23.893Z,6.50
2019-06-26T01:40:23.883Z,6.50
2019-06-26T01:41:23.904Z,6.30
2019-06-26T01:42:23.858Z,6.10
2019-06-26T01:43:23.895Z,6.50
2019-06-26T01:44:23.837Z,6.90
2019-06-26T01:45:23.825Z,7.10
2019-06-26T01:46:23.845Z,7.30
2019-06-26T01:47:23.803Z,7.10
2019-06-26T01:48:23.813Z,7.10
2019-06-26T01:49:23.779Z,7.00
2019-06-26T01:50:23.767Z,6.70
2019-06-26T01:51:23.794Z,6.70
2019-06-26T01:52:23.746Z,6.60
2019-06-26T01:53:23.734Z,7.20
2019-06-26T01:54:23.724Z,6.60
2019-06-26T01:55:23.716Z,7.30
2019-06-26T01:56:23.736Z,6.00
2019-06-26T01:57:23.690Z,7.40
2019-06-26T01:58:23.678Z,6.50
2019-06-26T01:59:23.666Z,6.20
2019-06-26T02:00:23.663Z,6.10
2019-06-26T02:01:23.744Z,6.60
2019-06-26T02:02:23.635Z,8.30
2019-06-26T02:03:23.623Z,8.10
2019-06-26T02:04:23.610Z,8.40
2019-06-26T02:05:23.599Z,9.70
2019-06-26T02:06:23.620Z,8.50
2019-06-26T02:07:23.581Z,8.00
2019-06-26T02:08:23.586Z,7.00
2019-06-26T02:09:23.554Z,7.50
2019-06-26T02:10:23.545Z,8.90
2019-06-26T02:11:23.563Z,9.60
2019-06-26T02:12:23.522Z,9.90
2019-06-26T02:13:23.510Z,8.30
2019-06-26T02:14:31.094Z,6.90
2019-06-26T02:15:24.489Z,7.20
2019-06-26T02:16:23.515Z,7.00
2019-06-26T02:17:23.470Z,7.60
2019-06-26T02:18:23.460Z,8.00
2019-06-26T02:19:23.444Z,7.90
2019-06-26T02:20:23.432Z,7.80
2019-06-26T02:21:23.469Z,7.20
2019-06-26T02:22:23.416Z,6.70
2019-06-26T02:23:23.403Z,7.10
2019-06-26T02:24:23.386Z,6.40
2019-06-26T02:25:23.376Z,8.20
2019-06-26T02:26:23.399Z,8.30
2019-06-26T02:27:23.354Z,9.00
2019-06-26T02:28:23.344Z,8.40
2019-06-26T02:29:23.334Z,7.80
2019-06-26T02:30:23.322Z,7.40
2019-06-26T02:31:23.319Z,8.00
2019-06-26T02:32:23.336Z,7.50
2019-06-26T02:33:23.288Z,9.40
2019-06-26T02:34:23.279Z,10.50
2019-06-26T02:35:23.269Z,10.80
2019-06-26T02:36:23.271Z,10.80
2019-06-26T02:37:23.273Z,10.70
2019-06-26T02:38:23.295Z,10.40
2019-06-26T02:39:23.220Z,10.80
2019-06-26T02:40:23.212Z,10.40
2019-06-26T02:41:23.224Z,10.30
2019-06-26T02:42:23.221Z,8.60
2019-06-26T02:43:23.177Z,8.20
2019-06-26T02:44:23.166Z,8.40
2019-06-26T02:45:23.162Z,8.40
2019-06-26T02:46:23.144Z,9.40
2019-06-26T02:47:23.166Z,11.50
2019-06-26T02:48:23.123Z,11.90
2019-06-26T02:49:23.110Z,11.60
2019-06-26T02:50:23.103Z,8.50
2019-06-26T02:51:23.087Z,8.30
2019-06-26T02:52:23.109Z,8.00
2019-06-26T02:53:23.064Z,13.90
2019-06-26T02:54:23.069Z,13.20
2019-06-26T02:55:23.043Z,14.20
2019-06-26T02:56:23.032Z,14.40
2019-06-26T02:57:23.064Z,13.40
2019-06-26T02:58:23.017Z,8.70
2019-06-26T02:59:22.998Z,8.10
2019-06-26T03:00:22.986Z,7.90
2019-06-26T03:01:22.984Z,8.30
2019-06-26T03:02:23.000Z,8.80
2019-06-26T03:03:22.954Z,11.70
2019-06-26T03:04:22.947Z,13.50
2019-06-26T03:05:22.985Z,12.20
2019-06-26T03:06:22.923Z,9.90
2019-06-26T03:07:22.942Z,11.10
2019-06-26T03:08:22.905Z,12.30
2019-06-26T03:09:22.886Z,12.40
2019-06-26T03:10:22.876Z,12.30
2019-06-26T03:11:22.864Z,11.70
2019-06-26T03:12:22.889Z,11.10
2019-06-26T03:13:22.843Z,11.90
2019-06-26T03:14:22.831Z,12.60
2019-06-26T03:15:22.825Z,12.40
2019-06-26T03:16:22.823Z,11.80
2019-06-26T03:17:22.834Z,11.10
2019-06-26T03:18:22.785Z,10.90
2019-06-26T03:19:22.775Z,11.50
2019-06-26T03:20:22.763Z,11.40
2019-06-26T03:21:22.755Z,10.20
2019-06-26T03:22:22.744Z,10.70
2019-06-26T03:23:22.762Z,11.20
2019-06-26T03:24:22.734Z,11.00
2019-06-26T03:25:22.709Z,11.20
2019-06-26T03:26:22.699Z,10.80
2019-06-26T03:27:22.693Z,10.40
2019-06-26T03:28:22.710Z,10.10
2019-06-26T03:29:22.668Z,11.20
2019-06-26T03:30:22.656Z,12.10
2019-06-26T03:31:22.642Z,11.30
2019-06-26T03:32:22.635Z,10.80
2019-06-26T03:33:22.655Z,10.70
2019-06-26T03:34:22.610Z,10.80
2019-06-26T03:35:22.609Z,10.60
2019-06-26T03:36:22.588Z,9.70
2019-06-26T03:37:22.575Z,10.30
2019-06-26T03:38:22.607Z,10.20
2019-06-26T03:39:22.557Z,10.10
2019-06-26T03:40:22.544Z,10.00
2019-06-26T03:41:22.536Z,10.30
2019-06-26T03:42:22.522Z,10.70
2019-06-26T03:43:22.540Z,10.10
2019-06-26T03:44:22.500Z,9.40
2019-06-26T03:45:26.074Z,9.50
2019-06-26T03:46:22.478Z,8.70
2019-06-26T03:47:22.466Z,9.60
2019-06-26T03:48:22.485Z,10.70
2019-06-26T03:49:22.442Z,9.60
2019-06-26T03:50:22.431Z,10.40
2019-06-26T03:51:22.432Z,10.00
2019-06-26T03:52:22.412Z,10.00
2019-06-26T03:53:22.432Z,9.70
2019-06-26T03:54:22.388Z,9.00
2019-06-26T03:55:22.382Z,9.50
2019-06-26T03:56:22.400Z,10.40
2019-06-26T03:57:22.353Z,9.90
2019-06-26T03:58:22.408Z,9.60
2019-06-26T03:59:22.333Z,9.90
2019-06-26T04:00:22.323Z,10.30
2019-06-26T04:01:22.308Z,9.60
2019-06-26T04:02:22.300Z,8.50
2019-06-26T04:03:22.320Z,8.10
2019-06-26T04:04:22.275Z,8.50
2019-06-26T04:05:22.266Z,7.90
2019-06-26T04:06:22.256Z,8.20
2019-06-26T04:07:22.243Z,8.50
2019-06-26T04:08:22.269Z,8.80
2019-06-26T04:09:22.222Z,8.30
2019-06-26T04:10:22.212Z,8.80
2019-06-26T04:11:22.198Z,8.90
2019-06-26T04:12:22.196Z,8.90
2019-06-26T04:13:22.210Z,8.70
2019-06-26T04:14:22.170Z,8.10
2019-06-26T04:15:22.152Z,8.70
2019-06-26T04:16:22.144Z,8.70
2019-06-26T04:17:22.187Z,8.70
2019-06-26T04:18:22.122Z,9.50
2019-06-26T04:19:22.140Z,9.00
2019-06-26T04:20:22.098Z,8.80
2019-06-26T04:21:22.087Z,9.30
2019-06-26T04:22:22.076Z,7.90
2019-06-26T04:23:22.069Z,8.50
2019-06-26T04:24:22.085Z,9.20
2019-06-26T04:25:22.041Z,8.70
2019-06-26T04:26:22.032Z,8.80
2019-06-26T04:27:22.055Z,8.30
2019-06-26T04:28:22.009Z,8.70
2019-06-26T04:29:22.027Z,9.40
2019-06-26T04:30:22.000Z,9.50
2019-06-26T04:31:21.974Z,8.40
2019-06-26T04:32:21.964Z,8.20
2019-06-26T04:33:21.956Z,9.00
2019-06-26T04:34:21.977Z,9.30
2019-06-26T04:35:21.930Z,9.40
2019-06-26T04:36:21.920Z,9.60
2019-06-26T04:37:21.907Z,9.30
2019-06-26T04:38:21.898Z,9.30
2019-06-26T04:39:21.920Z,9.30
2019-06-26T04:40:21.874Z,9.40
2019-06-26T04:41:21.864Z,9.20
2019-06-26T04:42:21.853Z,9.60
2019-06-26T04:43:21.844Z,9.80
2019-06-26T04:44:21.871Z,9.60
2019-06-26T04:45:21.820Z,9.00
2019-06-26T04:46:21.814Z,10.30
2019-06-26T04:47:21.797Z,10.70
2019-06-26T04:48:21.789Z,9.20
2019-06-26T04:49:21.806Z,13.70
2019-06-26T04:50:21.776Z,13.50
2019-06-26T04:51:21.766Z,13.70
2019-06-26T04:52:21.747Z,13.50
2019-06-26T04:53:21.733Z,12.00
2019-06-26T04:54:21.760Z,12.30
2019-06-26T04:55:21.712Z,14.20
2019-06-26T04:56:21.700Z,16.40
2019-06-26T04:57:21.687Z,23.10
2019-06-26T04:58:21.677Z,24.20
2019-06-26T04:59:21.698Z,26.20
2019-06-26T05:00:22.054Z,26.30
2019-06-26T05:01:21.640Z,27.00
2019-06-26T05:02:21.635Z,23.60
2019-06-26T05:03:21.619Z,25.90
2019-06-26T05:04:21.639Z,27.20
2019-06-26T05:05:21.596Z,27.20
2019-06-26T05:06:21.588Z,24.40
2019-06-26T05:07:21.577Z,28.00
2019-06-26T05:08:21.566Z,26.00
2019-06-26T05:09:21.695Z,25.50
2019-06-26T05:10:21.578Z,25.20
2019-06-26T05:11:21.548Z,26.00
2019-06-26T05:12:21.524Z,26.10
2019-06-26T05:13:21.509Z,26.90
2019-06-26T05:14:21.528Z,24.80
2019-06-26T05:15:21.487Z,25.80
2019-06-26T05:16:21.474Z,27.90
2019-06-26T05:17:21.467Z,25.80
2019-06-26T05:18:21.453Z,30.50
2019-06-26T05:19:21.442Z,29.40
2019-06-26T05:20:21.466Z,30.50
2019-06-26T05:21:21.419Z,30.60
2019-06-26T05:22:21.410Z,28.10
2019-06-26T05:23:21.396Z,27.00
2019-06-26T05:24:21.386Z,25.90
2019-06-26T05:25:21.410Z,24.30
2019-06-26T05:26:21.366Z,25.10
2019-06-26T05:27:21.352Z,24.00
2019-06-26T05:28:21.340Z,26.60
2019-06-26T05:29:21.331Z,25.90
2019-06-26T05:30:21.353Z,27.70
2019-06-26T05:31:21.317Z,27.50
2019-06-26T05:32:21.297Z,26.60
2019-06-26T05:33:21.285Z,28.40
2019-06-26T05:34:21.277Z,29.80
2019-06-26T05:35:21.299Z,29.40
2019-06-26T05:36:21.253Z,32.00
2019-06-26T05:37:21.264Z,31.10
2019-06-26T05:38:21.231Z,32.50
2019-06-26T05:39:21.219Z,34.30
2019-06-26T05:40:21.242Z,30.90
2019-06-26T05:41:21.219Z,31.60
2019-06-26T05:42:21.187Z,32.50
2019-06-26T05:43:21.174Z,30.70
2019-06-26T05:44:21.164Z,33.40
2019-06-26T05:45:21.188Z,35.10
2019-06-26T05:46:30.519Z,33.10
2019-06-26T05:47:22.339Z,34.50
2019-06-26T05:48:21.117Z,32.60
2019-06-26T05:49:21.110Z,33.50
2019-06-26T05:50:21.128Z,34.80
2019-06-26T05:51:21.087Z,34.20
2019-06-26T05:52:21.197Z,34.00
2019-06-26T05:53:21.067Z,34.20
2019-06-26T05:54:21.052Z,33.30
2019-06-26T05:55:21.076Z,31.50
2019-06-26T05:56:21.028Z,32.40
2019-06-26T05:57:21.019Z,32.40
2019-06-26T05:58:21.011Z,29.20
2019-06-26T05:59:21.003Z,32.20
2019-06-26T06:00:21.017Z,33.10
2019-06-26T06:01:20.973Z,32.30
2019-06-26T06:02:20.963Z,34.10
2019-06-26T06:03:20.952Z,30.50
2019-06-26T06:04:20.975Z,30.00
2019-06-26T06:05:20.928Z,30.00
2019-06-26T06:06:20.919Z,32.20
2019-06-26T06:07:20.904Z,35.30
2019-06-26T06:08:20.893Z,30.90
2019-06-26T06:09:20.920Z,34.00
2019-06-26T06:10:20.875Z,35.80
2019-06-26T06:11:20.869Z,32.00
2019-06-26T06:12:20.849Z,34.60
2019-06-26T06:13:20.839Z,39.20
2019-06-26T06:14:20.836Z,35.80
2019-06-26T06:15:20.866Z,34.60
2019-06-26T06:16:20.805Z,35.20
2019-06-26T06:17:20.798Z,33.20
2019-06-26T06:18:20.783Z,33.00
2019-06-26T06:19:20.773Z,38.90
2019-06-26T06:20:20.793Z,34.30
2019-06-26T06:21:20.751Z,31.20
2019-06-26T06:22:20.738Z,31.60
2019-06-26T06:23:20.730Z,34.40
2019-06-26T06:24:20.718Z,33.20
2019-06-26T06:25:20.751Z,31.40
2019-06-26T06:26:20.701Z,33.20
2019-06-26T06:27:20.713Z,31.70
2019-06-26T06:28:20.801Z,31.80
2019-06-26T06:29:20.662Z,31.40
2019-06-26T06:30:20.668Z,33.80
2019-06-26T06:31:20.645Z,33.30
2019-06-26T06:32:20.660Z,34.10
2019-06-26T06:33:20.617Z,33.50
2019-06-26T06:34:20.607Z,34.40
2019-06-26T06:35:20.592Z,28.90
2019-06-26T06:36:20.583Z,32.30
2019-06-26T06:37:20.604Z,34.80
2019-06-26T06:38:20.586Z,35.10
2019-06-26T06:39:20.552Z,30.50
2019-06-26T06:40:20.537Z,33.00
2019-06-26T06:41:20.528Z,30.80
2019-06-26T06:42:20.515Z,30.20
2019-06-26T06:43:20.534Z,33.30
2019-06-26T06:44:20.501Z,33.00
2019-06-26T06:45:20.498Z,31.80
2019-06-26T06:46:20.471Z,28.80
2019-06-26T06:47:20.483Z,28.50
2019-06-26T06:48:20.483Z,35.20
2019-06-26T06:49:20.440Z,34.70
2019-06-26T06:50:20.493Z,36.00
2019-06-26T06:51:20.411Z,35.30
2019-06-26T06:52:20.406Z,34.20
2019-06-26T06:53:20.424Z,31.60
2019-06-26T06:54:20.432Z,31.50
2019-06-26T06:55:20.378Z,32.80
2019-06-26T06:56:20.358Z,30.30
2019-06-26T06:57:20.345Z,31.90
2019-06-26T06:58:20.366Z,34.90
2019-06-26T06:59:20.332Z,32.00
2019-06-26T07:00:20.313Z,32.00
2019-06-26T07:01:20.302Z,33.70
2019-06-26T07:02:20.303Z,33.90
2019-06-26T07:03:20.310Z,35.50
2019-06-26T07:04:20.269Z,35.60
2019-06-26T07:05:20.257Z,35.50
2019-06-26T07:06:20.244Z,34.60
2019-06-26T07:07:20.236Z,32.40
2019-06-26T07:08:20.261Z,33.90
2019-06-26T07:09:20.210Z,33.40
2019-06-26T07:10:20.200Z,36.60
2019-06-26T07:11:20.195Z,34.30
2019-06-26T07:12:21.023Z,31.30
2019-06-26T07:13:20.198Z,33.70
2019-06-26T07:14:20.158Z,32.60
2019-06-26T07:15:20.148Z,32.30
2019-06-26T07:16:20.131Z,30.80
2019-06-26T07:17:21.426Z,31.60
2019-06-26T07:18:20.111Z,32.40
2019-06-26T07:19:20.130Z,31.40
2019-06-26T07:20:20.092Z,32.30
2019-06-26T07:21:20.079Z,32.10
2019-06-26T07:22:20.067Z,38.30
2019-06-26T07:23:20.056Z,31.10
2019-06-26T07:24:20.078Z,33.80
2019-06-26T07:25:20.043Z,34.10
2019-06-26T07:26:20.025Z,33.20
2019-06-26T07:27:20.015Z,31.30
2019-06-26T07:28:20.036Z,36.00
2019-06-26T07:29:20.023Z,35.50
2019-06-26T07:30:19.983Z,34.70
2019-06-26T07:31:19.971Z,32.00
2019-06-26T07:32:19.973Z,35.50
2019-06-26T07:33:19.952Z,34.40
2019-06-26T07:34:19.970Z,33.60
2019-06-26T07:35:19.925Z,31.20
2019-06-26T07:36:19.917Z,35.10
2019-06-26T07:37:19.913Z,32.60
2019-06-26T07:38:19.896Z,31.90
2019-06-26T07:39:19.917Z,32.40
2019-06-26T07:40:19.871Z,29.70
2019-06-26T07:41:19.869Z,29.60
2019-06-26T07:42:19.857Z,31.30
2019-06-26T07:43:19.839Z,31.50
2019-06-26T07:44:19.866Z,29.00
2019-06-26T07:45:23.044Z,30.30
2019-06-26T07:46:19.814Z,30.50
2019-06-26T07:47:24.984Z,27.90
2019-06-26T07:48:20.784Z,30.00
2019-06-26T07:49:19.814Z,29.50
2019-06-26T07:50:19.767Z,30.70
2019-06-26T07:51:19.751Z,27.50
2019-06-26T07:52:19.742Z,29.10
2019-06-26T07:53:19.732Z,28.10
2019-06-26T07:54:19.724Z,28.00
2019-06-26T07:55:19.740Z,28.20
2019-06-26T07:56:19.704Z,26.80
2019-06-26T07:57:19.695Z,25.60
2019-06-26T07:58:19.677Z,24.40
2019-06-26T07:59:19.673Z,24.90
2019-06-26T08:00:19.691Z,23.40
2019-06-26T08:01:19.649Z,24.50
2019-06-26T08:02:19.642Z,24.20
2019-06-26T08:03:19.621Z,25.50
2019-06-26T08:04:19.614Z,24.00
2019-06-26T08:05:19.637Z,22.80
2019-06-26T08:06:19.594Z,23.90
2019-06-26T08:07:19.678Z,27.30
2019-06-26T08:08:19.568Z,26.10
2019-06-26T08:09:19.564Z,29.00
2019-06-26T08:10:19.577Z,25.60
2019-06-26T08:11:19.535Z,30.40
2019-06-26T08:12:19.526Z,28.00
2019-06-26T08:13:19.515Z,26.00
2019-06-26T08:14:19.509Z,29.60
2019-06-26T08:15:19.534Z,29.90
2019-06-26T08:16:19.482Z,27.90
2019-06-26T08:17:19.474Z,29.20
2019-06-26T08:18:19.465Z,27.30
2019-06-26T08:19:19.453Z,24.90
2019-06-26T08:20:19.469Z,26.60
2019-06-26T08:21:19.431Z,28.50
2019-06-26T08:22:19.426Z,27.50
2019-06-26T08:23:19.407Z,26.00
2019-06-26T08:24:19.395Z,26.40
2019-06-26T08:25:19.709Z,25.20
2019-06-26T08:26:19.378Z,22.50
2019-06-26T08:27:19.363Z,20.30
2019-06-26T08:28:19.353Z,21.80
2019-06-26T08:29:19.351Z,19.60
2019-06-26T08:30:19.365Z,20.20
2019-06-26T08:31:19.327Z,19.30
2019-06-26T08:32:19.309Z,19.10
2019-06-26T08:33:19.312Z,19.60
2019-06-26T08:34:19.288Z,18.90
2019-06-26T08:35:19.280Z,18.60
2019-06-26T08:36:19.302Z,17.10
2019-06-26T08:37:19.259Z,18.80
2019-06-26T08:38:19.249Z,18.90
2019-06-26T08:39:19.233Z,19.30
2019-06-26T08:40:19.225Z,16.80
2019-06-26T08:41:19.244Z,16.00
2019-06-26T08:42:19.202Z,17.90
2019-06-26T08:43:19.195Z,16.00
2019-06-26T08:44:19.206Z,20.40
2019-06-26T08:45:19.177Z,21.80
2019-06-26T08:46:19.190Z,20.30
2019-06-26T08:47:19.310Z,18.10
2019-06-26T08:48:34.912Z,20.20
2019-06-26T08:49:25.396Z,21.20
2019-06-26T08:50:20.113Z,21.30
2019-06-26T08:51:19.166Z,17.70
2019-06-26T08:52:19.098Z,19.90
2019-06-26T08:53:19.092Z,16.80
2019-06-26T08:54:19.075Z,17.40
2019-06-26T08:55:19.154Z,16.80
2019-06-26T08:56:19.084Z,15.90
2019-06-26T08:57:19.043Z,17.60
2019-06-26T08:58:19.027Z,17.40
2019-06-26T08:59:19.019Z,17.90
2019-06-26T09:00:19.014Z,19.10
2019-06-26T09:01:19.049Z,19.10
2019-06-26T09:02:18.983Z,20.20
2019-06-26T09:03:18.972Z,17.90
2019-06-26T09:04:18.962Z,19.60
2019-06-26T09:05:18.961Z,19.10
2019-06-26T09:06:18.981Z,19.00
2019-06-26T09:07:18.928Z,18.00
2019-06-26T09:08:19.049Z,19.20
2019-06-26T09:09:18.903Z,19.40
2019-06-26T09:10:18.892Z,18.40
2019-06-26T09:11:18.911Z,19.60
2019-06-26T09:12:18.926Z,18.20
2019-06-26T09:13:18.866Z,19.10
2019-06-26T09:14:18.846Z,17.30
2019-06-26T09:15:18.834Z,17.90
2019-06-26T09:16:18.838Z,19.10
2019-06-26T09:17:18.864Z,19.60
2019-06-26T09:18:34.492Z,17.80
2019-06-26T09:19:19.809Z,17.90
2019-06-26T09:20:18.778Z,17.70
2019-06-26T09:21:18.769Z,17.70
2019-06-26T09:22:18.793Z,15.70
2019-06-26T09:23:18.746Z,17.80
2019-06-26T09:24:18.734Z,18.10
2019-06-26T09:25:22.131Z,17.00
2019-06-26T09:26:18.714Z,16.90
2019-06-26T09:27:18.805Z,18.00
2019-06-26T09:28:18.689Z,17.10
2019-06-26T09:29:18.681Z,17.10
2019-06-26T09:30:18.671Z,16.90
2019-06-26T09:31:18.682Z,16.90
2019-06-26T09:32:18.686Z,17.40
2019-06-26T09:33:18.638Z,16.60
2019-06-26T09:34:18.623Z,19.00
2019-06-26T09:35:18.615Z,16.50
2019-06-26T09:36:18.651Z,14.90
2019-06-26T09:37:18.595Z,14.90
2019-06-26T09:38:18.618Z,14.90
2019-06-26T09:39:18.592Z,14.60
2019-06-26T09:40:18.656Z,18.20
2019-06-26T09:41:18.551Z,16.90
2019-06-26T09:42:19.888Z,16.20
2019-06-26T09:43:18.561Z,16.20
2019-06-26T09:44:18.682Z,14.70
2019-06-26T09:45:18.505Z,16.40
2019-06-26T09:46:18.497Z,17.30
2019-06-26T09:47:18.484Z,15.60
2019-06-26T09:48:18.530Z,17.40
2019-06-26T09:49:18.464Z,17.40
2019-06-26T09:50:18.449Z,17.40
2019-06-26T09:51:18.444Z,17.50
2019-06-26T09:52:18.463Z,16.00
2019-06-26T09:53:18.463Z,18.00
2019-06-26T09:54:18.408Z,16.40
2019-06-26T09:55:18.466Z,15.30
2019-06-26T09:56:18.407Z,16.60
2019-06-26T09:57:18.373Z,18.10
2019-06-26T09:58:18.398Z,16.80
2019-06-26T09:59:18.363Z,16.40
2019-06-26T10:00:18.368Z,16.50
2019-06-26T10:01:18.332Z,17.70
2019-06-26T10:02:18.338Z,18.10
2019-06-26T10:03:18.371Z,15.50
2019-06-26T10:04:18.331Z,17.40
2019-06-26T10:05:18.291Z,16.00
2019-06-26T10:06:18.278Z,15.70
2019-06-26T10:07:18.265Z,16.50
2019-06-26T10:08:18.257Z,15.10
2019-06-26T10:09:18.281Z,15.70
2019-06-26T10:10:18.241Z,13.70
2019-06-26T10:11:18.228Z,14.50
2019-06-26T10:12:18.212Z,13.80
2019-06-26T10:13:18.199Z,13.10
2019-06-26T10:14:18.221Z,13.90
2019-06-26T10:15:18.182Z,13.50
2019-06-26T10:16:18.166Z,14.20
2019-06-26T10:17:18.167Z,14.60
2019-06-26T10:18:18.159Z,14.90
2019-06-26T10:19:18.166Z,15.20
2019-06-26T10:20:18.132Z,15.80
2019-06-26T10:21:18.116Z,15.30
2019-06-26T10:22:18.109Z,13.10
2019-06-26T10:23:18.091Z,13.50
2019-06-26T10:24:18.112Z,14.00
2019-06-26T10:25:18.069Z,15.00
2019-06-26T10:26:18.068Z,14.60
2019-06-26T10:27:18.051Z,15.70
2019-06-26T10:28:18.037Z,13.70
2019-06-26T10:29:18.057Z,13.40
2019-06-26T10:30:18.014Z,14.60
2019-06-26T10:31:18.604Z,14.80
2019-06-26T10:32:18.002Z,15.50
2019-06-26T10:33:17.985Z,15.60
2019-06-26T10:34:18.004Z,14.10
2019-06-26T10:35:17.978Z,14.90
2019-06-26T10:36:17.953Z,14.60
2019-06-26T10:37:17.944Z,15.70
2019-06-26T10:38:17.937Z,15.40
2019-06-26T10:39:17.952Z,14.80
2019-06-26T10:40:17.917Z,15.50
2019-06-26T10:41:17.932Z,15.00
2019-06-26T10:42:17.890Z,13.70
2019-06-26T10:43:17.878Z,14.60
2019-06-26T10:44:17.899Z,15.60
2019-06-26T10:45:17.853Z,13.80
2019-06-26T10:46:17.862Z,15.50
2019-06-26T10:47:17.830Z,14.20
2019-06-26T10:48:17.820Z,15.00
2019-06-26T10:49:26.877Z,13.60
2019-06-26T10:50:18.807Z,15.20
2019-06-26T10:51:17.791Z,13.50
2019-06-26T10:52:17.784Z,15.80
2019-06-26T10:53:17.767Z,14.20
2019-06-26T10:54:17.790Z,14.50
2019-06-26T10:55:17.747Z,15.10
2019-06-26T10:56:17.737Z,15.80
2019-06-26T10:57:17.730Z,14.30
2019-06-26T10:58:17.718Z,16.30
2019-06-26T10:59:17.710Z,14.90
2019-06-26T11:00:17.725Z,15.80
2019-06-26T11:01:17.687Z,14.90
2019-06-26T11:02:17.700Z,13.50
2019-06-26T11:03:17.666Z,13.50
2019-06-26T11:04:17.661Z,15.20
2019-06-26T11:05:17.677Z,14.30
2019-06-26T11:06:17.650Z,15.60
2019-06-26T11:07:17.624Z,15.20
2019-06-26T11:08:17.613Z,15.30
2019-06-26T11:09:17.603Z,14.60
2019-06-26T11:10:17.625Z,13.70
2019-06-26T11:11:17.584Z,13.30
2019-06-26T11:12:17.574Z,11.80
2019-06-26T11:13:17.568Z,12.70
2019-06-26T11:14:17.550Z,12.60
2019-06-26T11:15:17.577Z,12.80
2019-06-26T11:16:17.533Z,12.40
2019-06-26T11:17:17.519Z,12.20
2019-06-26T11:18:17.508Z,11.50
2019-06-26T11:19:17.548Z,10.10
2019-06-26T11:20:17.541Z,10.00
2019-06-26T11:21:17.475Z,9.90
2019-06-26T11:22:17.461Z,9.90
2019-06-26T11:23:17.484Z,12.60
2019-06-26T11:24:17.441Z,11.90
2019-06-26T11:25:17.461Z,11.10
2019-06-26T11:26:17.418Z,11.10
2019-06-26T11:27:17.412Z,10.10
2019-06-26T11:28:17.398Z,9.80
2019-06-26T11:29:17.394Z,9.40
2019-06-26T11:30:17.406Z,10.10
2019-06-26T11:31:17.370Z,10.00
2019-06-26T11:32:17.360Z,9.70
2019-06-26T11:33:17.347Z,10.00
2019-06-26T11:34:17.331Z,10.00
2019-06-26T11:35:17.351Z,10.40
2019-06-26T11:36:17.318Z,9.70
2019-06-26T11:37:17.309Z,9.60
2019-06-26T11:38:17.291Z,11.00
2019-06-26T11:39:17.281Z,10.80
2019-06-26T11:40:17.296Z,10.60
2019-06-26T11:41:17.253Z,10.50
2019-06-26T11:42:17.247Z,9.80
2019-06-26T11:43:17.232Z,9.30
2019-06-26T11:44:17.225Z,9.00
2019-06-26T11:45:17.245Z,9.60
2019-06-26T11:46:17.218Z,10.60
2019-06-26T11:47:17.207Z,10.20
2019-06-26T11:48:17.180Z,10.80
2019-06-26T11:49:17.171Z,10.20
2019-06-26T11:50:17.193Z,10.80
2019-06-26T11:51:17.151Z,9.60
2019-06-26T11:52:17.138Z,10.10
2019-06-26T11:53:17.129Z,9.30
2019-06-26T11:54:17.116Z,10.00
2019-06-26T11:55:17.139Z,9.70
2019-06-26T11:56:17.172Z,8.70
2019-06-26T11:57:17.083Z,7.90
2019-06-26T11:58:17.073Z,7.20
2019-06-26T11:59:17.063Z,6.50
2019-06-26T12:00:17.091Z,7.70
2019-06-26T12:01:17.049Z,6.70
2019-06-26T12:02:17.296Z,7.20
2019-06-26T12:03:17.021Z,7.40
2019-06-26T12:04:17.009Z,7.30
2019-06-26T12:05:16.997Z,6.80
2019-06-26T12:06:19.126Z,6.90
2019-06-26T12:07:16.974Z,6.20
2019-06-26T12:08:18.566Z,6.20
2019-06-26T12:09:16.953Z,5.80
2019-06-26T12:10:16.944Z,6.10
2019-06-26T12:11:16.964Z,5.80
2019-06-26T12:12:16.917Z,6.30
2019-06-26T12:13:16.910Z,6.60
2019-06-26T12:14:16.895Z,6.50
2019-06-26T12:15:16.884Z,5.90
2019-06-26T12:16:16.904Z,5.50
2019-06-26T12:17:16.861Z,5.00
2019-06-26T12:18:16.853Z,5.20
2019-06-26T12:19:19.912Z,5.10
2019-06-26T12:20:19.852Z,5.30
2019-06-26T12:21:16.854Z,4.70
2019-06-26T12:22:16.810Z,5.20
2019-06-26T12:23:16.799Z,5.30
2019-06-26T12:24:16.788Z,4.80
2019-06-26T12:25:16.806Z,4.80
2019-06-26T12:26:16.801Z,5.00
2019-06-26T12:27:16.756Z,5.00
2019-06-26T12:28:16.745Z,5.10
2019-06-26T12:29:16.780Z,5.20
2019-06-26T12:30:16.724Z,5.90
2019-06-26T12:31:16.745Z,5.50
2019-06-26T12:32:16.703Z,5.50
2019-06-26T12:33:16.705Z,5.60
2019-06-26T12:34:16.686Z,5.80
2019-06-26T12:35:16.808Z,5.80
2019-06-26T12:36:16.784Z,6.20
2019-06-26T12:37:16.702Z,6.50
2019-06-26T12:38:16.641Z,6.60
2019-06-26T12:39:16.671Z,6.50
2019-06-26T12:40:17.526Z,5.90
2019-06-26T12:41:16.667Z,6.20
2019-06-26T12:42:16.608Z,6.20
2019-06-26T12:43:16.589Z,6.00
2019-06-26T12:44:16.574Z,6.30
2019-06-26T12:45:16.565Z,6.40
2019-06-26T12:46:18.281Z,6.00
2019-06-26T12:47:16.547Z,6.90
2019-06-26T12:48:16.614Z,6.40
2019-06-26T12:49:16.521Z,6.70
2019-06-26T12:50:16.553Z,6.60
2019-06-26T12:51:16.531Z,6.60
2019-06-26T12:52:17.178Z,6.50
2019-06-26T12:53:16.479Z,7.20
2019-06-26T12:54:16.528Z,6.70
2019-06-26T12:55:16.468Z,6.50
2019-06-26T12:56:16.479Z,6.60
2019-06-26T12:57:16.436Z,7.40
2019-06-26T12:58:19.970Z,6.90
2019-06-26T12:59:16.413Z,7.90
2019-06-26T13:00:16.406Z,7.50
2019-06-26T13:01:16.426Z,7.00
2019-06-26T13:02:16.382Z,7.40